Time;durP1;ratioP1;P1;durP2;ratioP2;P2;SDS_P1;SDS_P2;PMS_P1;PMS_P2;Temp;Humidity;BMP_temperature;BMP_pressure;BME280_temperature;BME280_humidity;BME280_pressure;Samples;Min_cycle;Max_cycle;Signal;HPM_P1;HPM_P2
2022/03/23 00:00:34;;;;;;;155.57;72.63;;;;;;;;;;10394622;28;20065;-69
2022/03/23 00:05:44;;;;;;;150.02;70.45;;;;;;;;;;10393786;28;20050;-67
2022/03/23 00:10:46;;;;;;;155.05;71.80;;;;;;;;;;10394923;28;20073;-67
2022/03/23 00:15:51;;;;;;;155.40;70.07;;;;;;;;;;10373690;28;20092;-67
2022/03/23 00:20:53;;;;;;;159.18;72.50;;;;;;;;;;10353006;28;20053;-67
2022/03/23 00:25:55;;;;;;;145.45;68.80;;;;;;;;;;10351730;28;20049;-67
2022/03/23 00:30:59;;;;;;;158.90;74.63;;;;;;;;;;10352623;28;20053;-67
2022/03/23 00:36:02;;;;;;;168.27;73.43;;;;;;;;;;10351500;28;20081;-67
2022/03/23 00:41:05;;;;;;;160.85;72.28;;;;;;;;;;10351767;28;20050;-67
2022/03/23 00:46:08;;;;;;;141.45;65.68;;;;;;;;;;10370458;28;20112;-67
2022/03/23 00:51:11;;;;;;;145.07;65.15;;;;;;;;;;10392052;28;20045;-67
2022/03/23 00:56:13;;;;;;;191.43;84.47;;;;;;;;;;10373368;28;20082;-68
2022/03/23 01:01:17;;;;;;;184.18;82.88;;;;;;;;;;10351573;28;20054;-68
2022/03/23 01:06:19;;;;;;;177.98;78.50;;;;;;;;;;10350137;28;20361;-68
2022/03/23 01:11:21;;;;;;;157.75;74.50;;;;;;;;;;10351514;28;20054;-68
2022/03/23 01:16:25;;;;;;;154.05;73.55;;;;;;;;;;10367681;28;20072;-68
2022/03/23 01:21:29;;;;;;;162.85;74.93;;;;;;;;;;10391101;28;20312;-68
2022/03/23 01:26:31;;;;;;;161.25;73.93;;;;;;;;;;10389888;28;20088;-68
2022/03/23 01:31:34;;;;;;;164.93;79.43;;;;;;;;;;10373615;28;20081;-68
2022/03/23 01:36:37;;;;;;;201.60;90.18;;;;;;;;;;10366273;28;20089;-67
2022/03/23 01:41:41;;;;;;;220.45;100.88;;;;;;;;;;10373437;28;20074;-68
2022/03/23 01:47:02;;;;;;;218.23;100.38;;;;;;;;;;10360152;28;20065;-66
2022/03/23 01:52:07;;;;;;;209.48;97.97;;;;;;;;;;10390359;28;20240;-66
2022/03/23 01:57:13;;;;;;;170.05;83.80;;;;;;;;;;10391092;28;20061;-66
2022/03/23 02:02:17;;;;;;;186.25;86.40;;;;;;;;;;10387272;28;20337;-68
2022/03/23 02:07:19;;;;;;;173.77;80.32;;;;;;;;;;10356131;28;20042;-68
2022/03/23 02:12:22;;;;;;;188.10;82.32;;;;;;;;;;10358282;28;20062;-68
2022/03/23 02:17:26;;;;;;;168.10;77.10;;;;;;;;;;10362016;28;20054;-68
2022/03/23 02:22:30;;;;;;;192.38;86.55;;;;;;;;;;10398037;28;20068;-68
2022/03/23 02:27:34;;;;;;;189.35;85.13;;;;;;;;;;10379918;28;20081;-68
2022/03/23 02:32:37;;;;;;;173.90;78.85;;;;;;;;;;10356650;28;20078;-67
2022/03/23 02:37:40;;;;;;;154.65;73.40;;;;;;;;;;10370602;28;20050;-66
2022/03/23 02:42:43;;;;;;;151.75;72.22;;;;;;;;;;10355998;28;20349;-66
2022/03/23 02:47:45;;;;;;;160.13;75.43;;;;;;;;;;10356534;28;20042;-68
2022/03/23 03:03:28;;;;;;;150.00;69.15;;;;;;;;;;10395795;28;20249;-68
2022/03/23 03:08:47;;;;;;;146.43;70.82;;;;;;;;;;10395750;28;20041;-68
2022/03/23 03:13:52;;;;;;;142.10;68.35;;;;;;;;;;10374753;28;20309;-68
2022/03/23 03:18:55;;;;;;;152.50;70.63;;;;;;;;;;10386653;28;20057;-68
2022/03/23 03:24:00;;;;;;;159.98;70.85;;;;;;;;;;10395877;28;20054;-68
2022/03/23 03:29:04;;;;;;;144.40;70.22;;;;;;;;;;10385249;28;20080;-66
2022/03/23 03:34:08;;;;;;;145.07;69.40;;;;;;;;;;10365474;28;20061;-68
2022/03/23 03:39:11;;;;;;;158.13;70.78;;;;;;;;;;10353322;28;20046;-67
2022/03/23 03:44:14;;;;;;;156.00;71.30;;;;;;;;;;10354493;28;20085;-67
2022/03/23 03:49:18;;;;;;;140.40;66.72;;;;;;;;;;10372448;28;20056;-66
2022/03/23 03:54:22;;;;;;;155.07;72.25;;;;;;;;;;10392696;28;20068;-66
2022/03/23 03:59:24;;;;;;;150.13;70.00;;;;;;;;;;10383471;28;20061;-68
2022/03/23 04:04:26;;;;;;;136.35;66.75;;;;;;;;;;10390938;28;20046;-68
2022/03/23 04:09:30;;;;;;;150.23;68.32;;;;;;;;;;10352613;28;20408;-68
2022/03/23 04:14:32;;;;;;;141.15;69.10;;;;;;;;;;10352259;28;20055;-67
2022/03/23 04:19:35;;;;;;;157.75;72.45;;;;;;;;;;10352676;28;20220;-67
2022/03/23 04:24:39;;;;;;;149.40;70.47;;;;;;;;;;10391728;28;20081;-68
2022/03/23 04:29:41;;;;;;;151.48;71.57;;;;;;;;;;10351343;28;20074;-68
2022/03/23 04:34:44;;;;;;;159.65;71.72;;;;;;;;;;10352321;28;20089;-68
2022/03/23 04:39:48;;;;;;;166.98;74.78;;;;;;;;;;10311630;28;20333;-68
2022/03/23 04:44:50;;;;;;;158.95;75.28;;;;;;;;;;10318791;28;20141;-67
2022/03/23 04:49:52;;;;;;;162.77;76.32;;;;;;;;;;10388242;28;20069;-66
2022/03/23 04:54:56;;;;;;;161.07;77.68;;;;;;;;;;10350873;28;20069;-67
2022/03/23 04:59:58;;;;;;;156.00;77.10;;;;;;;;;;10351023;28;20053;-67
2022/03/23 05:05:01;;;;;;;146.98;71.90;;;;;;;;;;10353011;28;20049;-67
2022/03/23 05:10:05;;;;;;;152.30;72.63;;;;;;;;;;10389213;28;20072;-67
2022/03/23 05:15:09;;;;;;;161.87;69.23;;;;;;;;;;10351534;28;20234;-68
2022/03/23 05:20:13;;;;;;;133.20;69.22;;;;;;;;;;10349913;28;20050;-67
2022/03/23 05:25:17;;;;;;;134.82;68.95;;;;;;;;;;10349728;28;20361;-67
2022/03/23 05:30:20;;;;;;;155.60;70.38;;;;;;;;;;10378473;28;20231;-68
2022/03/23 05:35:23;;;;;;;146.50;74.72;;;;;;;;;;10348050;28;20078;-69
2022/03/23 05:40:26;;;;;;;212.98;105.97;;;;;;;;;;10353875;28;20046;-68
2022/03/23 05:45:29;;;;;;;121.83;70.60;;;;;;;;;;10395389;28;20041;-69
2022/03/23 05:50:33;;;;;;;99.00;60.88;;;;;;;;;;10366348;28;20113;-67
2022/03/23 05:55:36;;;;;;;101.80;58.55;;;;;;;;;;10357246;28;20092;-67
2022/03/23 06:00:39;;;;;;;;;;;;;;;;;;10393515;28;20042;-69
2022/03/23 06:05:41;;;;;;;99.80;68.35;;;;;;;;;;10356625;28;19945;-69
2022/03/23 06:10:45;;;;;;;83.17;53.73;;;;;;;;;;10353790;28;20038;-68
2022/03/23 06:15:47;;;;;;;76.80;50.15;;;;;;;;;;10353696;28;20361;-68
2022/03/23 06:20:51;;;;;;;73.85;47.40;;;;;;;;;;10395066;28;20133;-67
2022/03/23 06:25:55;;;;;;;66.88;46.17;;;;;;;;;;10356117;28;20066;-70
2022/03/23 06:30:58;;;;;;;63.72;44.58;;;;;;;;;;10352870;28;20222;-69
2022/03/23 06:36:01;;;;;;;87.25;58.80;;;;;;;;;;10354497;28;20097;-69
2022/03/23 06:41:06;;;;;;;81.13;54.60;;;;;;;;;;10392145;28;20057;-68
2022/03/23 06:46:08;;;;;;;86.22;56.33;;;;;;;;;;10362708;28;20088;-70
2022/03/23 06:51:11;;;;;;;70.57;49.58;;;;;;;;;;10352945;28;20387;-70
2022/03/23 06:56:14;;;;;;;69.07;45.55;;;;;;;;;;10355518;28;20221;-69
2022/03/23 07:01:17;;;;;;;67.50;42.00;;;;;;;;;;10353406;28;20096;-69
2022/03/23 07:06:19;;;;;;;62.10;39.83;;;;;;;;;;10334080;28;20380;-69
2022/03/23 07:11:22;;;;;;;60.15;36.97;;;;;;;;;;10386849;28;20050;-70
2022/03/23 07:16:25;;;;;;;51.05;35.75;;;;;;;;;;10353044;28;20062;-69
2022/03/23 07:21:28;;;;;;;49.63;34.42;;;;;;;;;;10367633;28;20054;-68
2022/03/23 07:26:31;;;;;;;53.42;33.40;;;;;;;;;;10383672;28;20049;-70
2022/03/23 07:31:34;;;;;;;61.60;33.25;;;;;;;;;;10387463;28;20045;-68
2022/03/23 07:36:38;;;;;;;41.05;29.42;;;;;;;;;;10381978;28;20070;-69
2022/03/23 07:41:42;;;;;;;45.08;34.17;;;;;;;;;;10359908;28;20073;-68
2022/03/23 07:46:44;;;;;;;43.60;30.00;;;;;;;;;;10372478;28;20083;-67
2022/03/23 07:51:47;;;;;;;43.53;29.17;;;;;;;;;;10320097;28;20089;-68
2022/03/23 07:56:50;;;;;;;37.47;26.05;;;;;;;;;;10360640;28;20054;-67
2022/03/23 08:01:53;;;;;;;40.67;28.20;;;;;;;;;;10371149;28;20050;-70
2022/03/23 08:06:55;;;;;;;44.10;26.00;;;;;;;;;;10351016;28;20061;-70
2022/03/23 08:11:59;;;;;;;35.88;26.35;;;;;;;;;;10348506;28;20054;-68
2022/03/23 08:17:01;;;;;;;33.63;22.83;;;;;;;;;;10354153;28;20062;-70
2022/03/23 08:22:04;;;;;;;30.63;24.23;;;;;;;;;;10380185;28;20050;-69
2022/03/23 08:27:08;;;;;;;37.67;23.88;;;;;;;;;;10351879;28;20089;-68
2022/03/23 08:32:10;;;;;;;37.15;24.17;;;;;;;;;;10388740;28;20048;-70
2022/03/23 08:37:12;;;;;;;29.50;21.63;;;;;;;;;;10350013;28;20058;-69
2022/03/23 08:42:16;;;;;;;25.70;19.67;;;;;;;;;;10350057;28;20042;-68
2022/03/23 08:47:18;;;;;;;22.77;18.35;;;;;;;;;;10390126;28;20041;-68
2022/03/23 08:52:21;;;;;;;22.88;17.83;;;;;;;;;;10389993;28;20379;-67
2022/03/23 08:57:24;;;;;;;21.73;15.65;;;;;;;;;;10373165;28;20050;-69
2022/03/23 09:02:26;;;;;;;23.65;16.75;;;;;;;;;;10348467;28;20046;-69
2022/03/23 09:07:29;;;;;;;21.40;16.58;;;;;;;;;;10349739;28;20074;-70
2022/03/23 09:12:32;;;;;;;27.27;20.23;;;;;;;;;;10349552;28;20245;-69
2022/03/23 09:17:35;;;;;;;23.42;16.98;;;;;;;;;;10352432;28;20337;-70
2022/03/23 09:22:38;;;;;;;20.92;16.05;;;;;;;;;;10389196;28;20049;-72
2022/03/23 09:27:43;;;;;;;23.02;16.40;;;;;;;;;;10383684;28;20089;-69
2022/03/23 09:32:47;;;;;;;23.67;18.38;;;;;;;;;;10348058;28;20086;-70
2022/03/23 09:37:50;;;;;;;27.58;19.50;;;;;;;;;;10367276;28;20042;-69
2022/03/23 09:42:55;;;;;;;29.33;20.10;;;;;;;;;;10370545;28;20055;-69
2022/03/23 09:47:58;;;;;;;32.20;22.15;;;;;;;;;;10348391;28;20081;-69
2022/03/23 09:53:00;;;;;;;;;;;;;;;;;;10384238;28;20070;-69
2022/03/23 09:58:06;;;;;;;39.35;25.83;;;;;;;;;;10370354;28;19918;-69
2022/03/23 10:03:54;;;;;;;39.55;26.42;;;;;;;;;;10349030;28;20050;-69
2022/03/23 10:09:21;;;;;;;37.40;27.13;;;;;;;;;;10358300;28;21436;-69
2022/03/23 10:15:21;;;;;;;40.55;26.13;;;;;;;;;;10362533;28;20053;-74
2022/03/23 10:20:24;;;;;;;39.05;28.30;;;;;;;;;;10350513;28;20038;-68
2022/03/23 10:25:28;;;;;;;43.33;28.50;;;;;;;;;;10366832;28;20054;-70
2022/03/23 10:30:37;;;;;;;32.53;22.30;;;;;;;;;;10348655;28;20223;-68
2022/03/23 10:35:41;;;;;;;39.30;26.05;;;;;;;;;;10320037;28;20067;-68
2022/03/23 10:40:44;;;;;;;35.73;24.27;;;;;;;;;;10364968;28;20061;-69
2022/03/23 10:45:48;;;;;;;34.28;24.95;;;;;;;;;;10353133;28;20054;-68
2022/03/23 10:50:52;;;;;;;37.07;24.80;;;;;;;;;;10341335;28;20058;-68
2022/03/23 10:55:54;;;;;;;36.60;26.50;;;;;;;;;;10350123;28;20057;-69
2022/03/23 11:01:02;;;;;;;80.13;31.70;;;;;;;;;;10350708;28;20388;-69
2022/03/23 11:06:05;;;;;;;49.75;37.83;;;;;;;;;;10408035;28;20100;-69
2022/03/23 11:16:31;;;;;;;46.72;33.13;;;;;;;;;;10368878;28;20057;-69
2022/03/23 11:21:56;;;;;;;43.40;28.15;;;;;;;;;;10358413;28;20041;-71
2022/03/23 11:27:00;;;;;;;34.38;24.92;;;;;;;;;;10351327;28;20050;-69
2022/03/23 11:32:08;;;;;;;33.30;21.00;;;;;;;;;;10348890;28;20069;-70
2022/03/23 11:37:13;;;;;;;37.38;21.33;;;;;;;;;;10282064;28;20358;-68
2022/03/23 11:42:17;;;;;;;26.48;19.25;;;;;;;;;;10280224;28;20050;-69
2022/03/23 11:47:34;;;;;;;29.67;21.27;;;;;;;;;;10284577;28;20043;-70
2022/03/23 11:52:43;;;;;;;27.67;19.95;;;;;;;;;;10283418;28;20039;-68
2022/03/23 11:58:06;;;;;;;31.83;21.40;;;;;;;;;;10296456;28;20042;-68
2022/03/23 12:03:09;;;;;;;28.55;20.85;;;;;;;;;;10306224;28;20389;-66
2022/03/23 12:08:14;;;;;;;30.13;20.63;;;;;;;;;;10272852;28;20329;-69
2022/03/23 12:13:18;;;;;;;39.88;20.92;;;;;;;;;;10271770;28;20051;-67
2022/03/23 12:18:38;;;;;;;62.33;27.00;;;;;;;;;;10271748;28;20094;-68
2022/03/23 12:23:49;;;;;;;25.17;17.38;;;;;;;;;;10270198;28;20122;-67
2022/03/23 12:28:56;;;;;;;36.63;22.52;;;;;;;;;;10268258;28;20227;-70
2022/03/23 12:34:06;;;;;;;37.35;22.27;;;;;;;;;;10308267;28;20305;-70
2022/03/23 12:39:09;;;;;;;37.83;19.67;;;;;;;;;;10370495;28;20042;-68
2022/03/23 12:44:12;;;;;;;27.77;17.83;;;;;;;;;;10351213;28;20048;-68
2022/03/23 13:00:10;;;;;;;29.48;19.23;;;;;;;;;;10376678;28;20055;-71
2022/03/23 13:05:21;;;;;;;31.60;19.88;;;;;;;;;;10324916;28;20262;-69
2022/03/23 13:10:24;;;;;;;29.63;19.98;;;;;;;;;;10338995;28;20069;-68
2022/03/23 13:15:31;;;;;;;42.88;23.08;;;;;;;;;;10355917;28;20045;-68
2022/03/23 13:20:36;;;;;;;34.42;21.35;;;;;;;;;;10367259;28;20042;-70
2022/03/23 13:25:39;;;;;;;33.17;20.60;;;;;;;;;;10353960;28;20066;-70
2022/03/23 13:30:42;;;;;;;29.42;19.90;;;;;;;;;;10359040;28;20245;-69
2022/03/23 13:35:47;;;;;;;41.05;23.23;;;;;;;;;;10331759;28;20078;-69
2022/03/23 13:46:18;;;;;;;35.72;23.58;;;;;;;;;;10226802;29;20060;-69
2022/03/23 13:51:21;;;;;;;31.55;22.23;;;;;;;;;;10256005;29;20362;-68
2022/03/23 13:56:23;;;;;;;86.88;63.47;;;;;;;;;;10226406;29;20087;-68
2022/03/23 14:01:26;;;;;;;44.92;27.05;;;;;;;;;;10263080;28;20094;-69
2022/03/23 14:06:31;;;;;;;35.88;22.70;;;;;;;;;;10272790;29;20098;-70
2022/03/23 14:11:51;;;;;;;39.13;23.13;;;;;;;;;;10273583;28;20059;-72
2022/03/23 14:17:14;;;;;;;33.42;21.55;;;;;;;;;;10285647;28;20061;-69
2022/03/23 14:22:20;;;;;;;35.88;21.98;;;;;;;;;;10343639;28;20058;-68
2022/03/23 14:27:24;;;;;;;42.00;22.98;;;;;;;;;;10331525;28;20042;-65
2022/03/23 14:32:28;;;;;;;38.15;21.30;;;;;;;;;;10346264;28;20058;-67
2022/03/23 14:37:37;;;;;;;34.00;23.02;;;;;;;;;;10371072;28;20317;-66
2022/03/23 14:42:39;;;;;;;33.60;18.75;;;;;;;;;;10345076;28;20062;-68
2022/03/23 14:47:49;;;;;;;36.20;19.33;;;;;;;;;;10323901;28;20050;-67
2022/03/23 14:52:53;;;;;;;27.75;14.55;;;;;;;;;;10356016;28;20241;-69
2022/03/23 14:57:56;;;;;;;22.83;13.80;;;;;;;;;;10357409;28;20333;-69
2022/03/23 15:02:58;;;;;;;23.30;13.93;;;;;;;;;;10363295;28;20295;-68
2022/03/23 15:13:22;;;;;;;27.17;17.65;;;;;;;;;;10341549;28;20101;-67
2022/03/23 15:18:25;;;;;;;32.85;18.67;;;;;;;;;;10358431;28;20046;-66
2022/03/23 15:23:29;;;;;;;40.97;19.88;;;;;;;;;;10352635;28;20046;-66
2022/03/23 15:28:33;;;;;;;35.00;20.63;;;;;;;;;;10352630;28;20046;-66
2022/03/23 15:33:35;;;;;;;37.83;20.73;;;;;;;;;;10354268;28;20050;-67
2022/03/23 15:38:39;;;;;;;30.88;18.02;;;;;;;;;;10369391;28;20050;-67
2022/03/23 15:43:42;;;;;;;30.25;18.85;;;;;;;;;;10353545;28;20261;-68
2022/03/23 15:48:46;;;;;;;33.03;19.80;;;;;;;;;;10357144;28;20047;-66
2022/03/23 15:53:50;;;;;;;38.88;22.30;;;;;;;;;;10350798;28;20345;-68
2022/03/23 15:58:52;;;;;;;39.10;21.80;;;;;;;;;;10365575;28;20228;-71
2022/03/23 16:03:55;;;;;;;33.88;22.15;;;;;;;;;;10355549;28;20042;-67
2022/03/23 16:09:00;;;;;;;36.38;22.45;;;;;;;;;;10354672;28;20050;-69
2022/03/23 16:14:02;;;;;;;37.58;22.73;;;;;;;;;;10356446;28;20117;-67
2022/03/23 16:19:07;;;;;;;41.45;25.15;;;;;;;;;;10365070;28;20097;-69
2022/03/23 16:24:11;;;;;;;48.10;26.08;;;;;;;;;;10343917;28;20065;-69
2022/03/23 16:29:13;;;;;;;50.95;24.42;;;;;;;;;;10337779;28;20058;-67
2022/03/23 16:34:20;;;;;;;58.72;28.13;;;;;;;;;;10340628;28;20088;-67
2022/03/23 16:39:24;;;;;;;56.22;26.98;;;;;;;;;;10337063;28;20044;-69
2022/03/23 16:44:29;;;;;;;44.53;25.70;;;;;;;;;;10348715;28;20211;-68
2022/03/23 16:49:32;;;;;;;49.22;26.30;;;;;;;;;;10334599;28;20096;-70
2022/03/23 16:54:36;;;;;;;39.40;25.10;;;;;;;;;;10340358;28;20121;-68
2022/03/23 16:59:39;;;;;;;48.85;24.80;;;;;;;;;;10344223;28;20048;-70
2022/03/23 17:15:25;;;;;;;67.72;33.75;;;;;;;;;;10406760;28;20049;-69
2022/03/23 17:20:30;;;;;;;63.30;29.48;;;;;;;;;;10397576;28;20178;-68
2022/03/23 17:25:36;;;;;;;58.95;27.02;;;;;;;;;;10384316;28;20217;-70
2022/03/23 17:30:39;;;;;;;50.83;25.45;;;;;;;;;;10396764;28;20199;-67
2022/03/23 17:35:43;;;;;;;52.47;24.00;;;;;;;;;;10391630;28;20329;-68
2022/03/23 17:40:48;;;;;;;51.33;23.03;;;;;;;;;;10397074;28;20223;-69
2022/03/23 17:45:51;;;;;;;47.85;23.98;;;;;;;;;;10394009;28;20049;-69
2022/03/23 17:50:54;;;;;;;40.00;23.23;;;;;;;;;;10395966;28;20038;-69
2022/03/23 17:55:57;;;;;;;51.70;24.63;;;;;;;;;;10388932;28;20256;-68
2022/03/23 18:01:00;;;;;;;49.30;24.02;;;;;;;;;;10388740;28;20046;-67
2022/03/23 18:06:04;;;;;;;43.00;22.05;;;;;;;;;;10394779;28;20049;-68
2022/03/23 18:11:08;;;;;;;38.20;22.02;;;;;;;;;;10399672;28;20057;-72
2022/03/23 18:16:10;;;;;;;44.35;21.85;;;;;;;;;;10386847;28;20049;-68
2022/03/23 18:21:15;;;;;;;49.78;27.90;;;;;;;;;;10398034;28;20045;-69
2022/03/23 18:26:20;;;;;;;35.80;21.80;;;;;;;;;;10392243;28;20050;-69
2022/03/23 18:31:24;;;;;;;40.83;23.13;;;;;;;;;;10398644;28;20241;-71
2022/03/23 18:36:29;;;;;;;46.15;23.17;;;;;;;;;;10392691;28;20261;-68
2022/03/23 18:41:34;;;;;;;49.40;25.47;;;;;;;;;;10391800;28;20053;-70
2022/03/23 18:46:36;;;;;;;42.30;24.45;;;;;;;;;;10393947;28;20061;-70
2022/03/23 18:51:38;;;;;;;43.05;24.17;;;;;;;;;;10396049;28;20379;-68
2022/03/23 18:56:42;;;;;;;42.60;24.10;;;;;;;;;;10386009;28;20046;-71
2022/03/23 19:01:45;;;;;;;45.33;25.98;;;;;;;;;;10388362;28;20101;-70
2022/03/23 19:06:48;;;;;;;48.92;25.90;;;;;;;;;;10386724;28;20045;-69
2022/03/23 19:11:52;;;;;;;45.88;24.95;;;;;;;;;;10391226;28;20038;-68
2022/03/23 19:16:54;;;;;;;51.33;26.92;;;;;;;;;;10391961;28;20050;-69
2022/03/23 19:21:58;;;;;;;49.28;25.30;;;;;;;;;;10386858;28;20046;-71
2022/03/23 19:27:02;;;;;;;54.13;29.05;;;;;;;;;;10394527;28;20264;-68
2022/03/23 19:32:06;;;;;;;42.53;25.10;;;;;;;;;;10390655;28;20038;-69
2022/03/23 19:37:11;;;;;;;51.75;29.10;;;;;;;;;;10385861;28;20084;-70
2022/03/23 19:42:15;;;;;;;57.08;29.73;;;;;;;;;;10386756;28;20042;-69
2022/03/23 19:47:18;;;;;;;54.30;30.30;;;;;;;;;;10393112;28;20033;-68
2022/03/23 19:52:20;;;;;;;54.45;30.38;;;;;;;;;;10392845;28;20034;-69
2022/03/23 19:57:24;;;;;;;57.13;31.25;;;;;;;;;;10381795;28;20450;-69
2022/03/23 20:02:26;;;;;;;62.60;31.80;;;;;;;;;;10371094;28;20075;-71
2022/03/23 20:07:29;;;;;;;58.40;31.98;;;;;;;;;;10389114;28;20042;-68
2022/03/23 20:12:34;;;;;;;66.50;34.08;;;;;;;;;;10389394;28;20080;-68
2022/03/23 20:17:36;;;;;;;63.53;32.03;;;;;;;;;;10384704;28;20436;-69
2022/03/23 20:22:40;;;;;;;65.80;35.20;;;;;;;;;;10386142;28;20050;-70
2022/03/23 20:27:44;;;;;;;67.80;34.28;;;;;;;;;;10384373;28;20053;-69
2022/03/23 20:32:48;;;;;;;71.18;33.95;;;;;;;;;;10377181;28;20073;-71
2022/03/23 20:37:51;;;;;;;63.08;35.30;;;;;;;;;;10393586;28;20065;-70
2022/03/23 20:42:55;;;;;;;72.65;36.20;;;;;;;;;;10376071;28;20218;-68
2022/03/23 20:47:58;;;;;;;72.32;38.60;;;;;;;;;;10390407;28;20084;-70
2022/03/23 20:53:07;;;;;;;67.03;34.47;;;;;;;;;;10389240;28;20105;-69
2022/03/23 20:58:11;;;;;;;72.45;35.67;;;;;;;;;;10397860;28;20045;-70
2022/03/23 21:03:14;;;;;;;66.22;35.85;;;;;;;;;;10387063;28;20038;-68
2022/03/23 21:08:17;;;;;;;70.28;35.85;;;;;;;;;;10386192;28;20077;-68
2022/03/23 21:13:22;;;;;;;70.95;35.72;;;;;;;;;;10379041;28;20046;-68
2022/03/23 21:18:24;;;;;;;69.43;37.47;;;;;;;;;;10383562;28;20046;-70
2022/03/23 21:23:26;;;;;;;73.28;35.97;;;;;;;;;;10382953;28;20112;-67
2022/03/23 21:28:30;;;;;;;65.50;37.13;;;;;;;;;;10381581;28;20093;-68
2022/03/23 21:33:35;;;;;;;78.72;39.00;;;;;;;;;;10386912;28;20042;-69
2022/03/23 21:38:39;;;;;;;68.82;35.47;;;;;;;;;;10385379;28;20062;-69
2022/03/23 21:43:43;;;;;;;69.70;36.20;;;;;;;;;;10349495;28;20062;-67
2022/03/23 21:48:45;;;;;;;71.07;37.10;;;;;;;;;;10360465;28;20054;-67
2022/03/23 21:53:48;;;;;;;71.15;36.85;;;;;;;;;;10349718;28;20043;-69
2022/03/23 21:58:51;;;;;;;66.60;35.83;;;;;;;;;;10353658;28;20344;-70
2022/03/23 22:03:54;;;;;;;66.50;36.50;;;;;;;;;;10372376;28;20253;-70
2022/03/23 22:08:56;;;;;;;74.00;36.88;;;;;;;;;;10349671;28;20315;-68
2022/03/23 22:13:59;;;;;;;74.65;38.17;;;;;;;;;;10349587;28;20065;-70
2022/03/23 22:19:03;;;;;;;69.23;38.33;;;;;;;;;;10354741;28;20053;-69
2022/03/23 22:24:06;;;;;;;72.25;38.47;;;;;;;;;;10369379;28;20046;-68
2022/03/23 22:29:09;;;;;;;79.63;40.15;;;;;;;;;;10394017;28;20045;-68
2022/03/23 22:34:14;;;;;;;75.05;38.83;;;;;;;;;;10357738;28;20082;-69
2022/03/23 22:39:16;;;;;;;73.57;38.90;;;;;;;;;;10356896;28;20084;-68
2022/03/23 22:44:20;;;;;;;76.18;40.03;;;;;;;;;;10357456;28;20056;-69
2022/03/23 22:49:23;;;;;;;78.53;38.17;;;;;;;;;;10356156;28;20053;-71
2022/03/23 22:54:25;;;;;;;72.13;38.38;;;;;;;;;;10357299;28;20050;-69
2022/03/23 22:59:29;;;;;;;72.32;38.47;;;;;;;;;;10358348;28;20057;-68
2022/03/23 23:04:31;;;;;;;77.55;40.28;;;;;;;;;;10360833;28;20038;-68
2022/03/23 23:09:33;;;;;;;96.30;49.17;;;;;;;;;;10356401;28;20050;-67
2022/03/23 23:14:40;;;;;;;79.43;42.83;;;;;;;;;;10374775;28;20069;-69
2022/03/23 23:19:43;;;;;;;88.45;44.88;;;;;;;;;;10396852;28;20164;-69
2022/03/23 23:24:45;;;;;;;82.93;41.80;;;;;;;;;;10364151;28;20072;-68
2022/03/23 23:30:02;;;;;;;80.63;40.80;;;;;;;;;;10354247;28;20066;-67
2022/03/23 23:35:08;;;;;;;82.53;43.17;;;;;;;;;;10360603;28;20054;-69
2022/03/23 23:40:16;;;;;;;85.18;43.13;;;;;;;;;;10352590;28;20050;-70
2022/03/23 23:45:20;;;;;;;75.30;39.85;;;;;;;;;;10355422;28;20356;-69
2022/03/23 23:50:23;;;;;;;82.10;44.35;;;;;;;;;;10368291;28;20042;-67
2022/03/23 23:55:25;;;;;;;85.85;41.05;;;;;;;;;;10396169;28;20274;-67
